createdAt,value
2016-04-26T00:00:35.984Z,0
2016-04-26T00:01:35.987Z,0
2016-04-26T00:02:36.020Z,0
2016-04-26T00:03:36.055Z,0
2016-04-26T00:04:36.073Z,0
2016-04-26T00:05:36.096Z,0
2016-04-26T00:06:36.129Z,0
2016-04-26T00:07:36.132Z,0
2016-04-26T00:08:36.197Z,0
2016-04-26T00:09:36.200Z,0
2016-04-26T00:10:36.218Z,0
2016-04-26T00:11:36.236Z,0
2016-04-26T00:12:36.286Z,0
2016-04-26T00:13:36.320Z,0
2016-04-26T00:14:36.354Z,0
2016-04-26T00:15:36.356Z,0
2016-04-26T00:16:36.281Z,0
2016-04-26T00:17:36.362Z,0
2016-04-26T00:18:36.443Z,0
2016-04-26T00:19:36.461Z,0
2016-04-26T00:20:36.495Z,0
2016-04-26T00:21:36.513Z,0
2016-04-26T00:22:36.547Z,0
2016-04-26T00:23:36.566Z,0
2016-04-26T00:24:36.444Z,0
2016-04-26T00:25:36.618Z,0
2016-04-26T00:26:36.652Z,0
2016-04-26T00:27:36.686Z,0
2016-04-26T00:28:36.704Z,0
2016-04-26T00:29:36.722Z,0
2016-04-26T00:30:36.600Z,0
2016-04-26T00:31:37.213Z,0
2016-04-26T00:32:36.808Z,0
2016-04-26T00:33:36.858Z,0
2016-04-26T00:34:36.876Z,0
2016-04-26T00:35:36.895Z,0
2016-04-26T00:36:36.913Z,0
2016-04-26T00:37:36.947Z,0
2016-04-26T00:38:36.996Z,0
2016-04-26T00:39:36.999Z,0
2016-04-26T00:40:37.034Z,0
2016-04-26T00:41:37.067Z,0
2016-04-26T00:42:37.085Z,0
2016-04-26T00:43:37.150Z,0
2016-04-26T00:44:37.153Z,0
2016-04-26T00:45:37.172Z,0
2016-04-26T00:46:37.486Z,0
2016-04-26T00:47:37.224Z,0
2016-04-26T00:48:37.242Z,0
2016-04-26T00:49:37.275Z,0
2016-04-26T00:50:37.279Z,0
2016-04-26T00:51:37.313Z,0
2016-04-26T00:52:37.331Z,0
2016-04-26T00:53:37.381Z,0
2016-04-26T00:54:37.446Z,0
2016-04-26T00:55:37.433Z,0
2016-04-26T00:56:37.451Z,0
2016-04-26T00:57:37.469Z,0
2016-04-26T00:58:37.488Z,0
2016-04-26T00:59:37.569Z,0
2016-04-26T01:00:37.587Z,0
2016-04-26T01:01:38.183Z,0
2016-04-26T01:02:37.498Z,0
2016-04-26T01:03:37.658Z,0
2016-04-26T01:04:37.677Z,0
2016-04-26T01:05:37.726Z,0
2016-04-26T01:06:37.588Z,0
2016-04-26T01:07:37.762Z,0
2016-04-26T01:08:37.780Z,0
2016-04-26T01:09:37.814Z,0
2016-04-26T01:10:37.865Z,0
2016-04-26T01:11:37.851Z,0
2016-04-26T01:12:37.869Z,0
2016-04-26T01:13:37.904Z,0
2016-04-26T01:14:37.937Z,0
2016-04-26T01:15:37.956Z,0
2016-04-26T01:16:39.177Z,0
2016-04-26T01:17:37.742Z,0
2016-04-26T01:18:38.073Z,0
2016-04-26T01:19:38.076Z,0
2016-04-26T01:20:38.094Z,0
2016-04-26T01:21:38.111Z,0
2016-04-26T01:22:38.147Z,0
2016-04-26T01:23:38.164Z,0
2016-04-26T01:24:38.198Z,0
2016-04-26T01:25:38.217Z,0
2016-04-26T01:26:38.235Z,0
2016-04-26T01:27:38.269Z,0
2016-04-26T01:28:38.288Z,0
2016-04-26T01:29:38.322Z,0
2016-04-26T01:30:38.386Z,0
2016-04-26T01:31:38.421Z,0
2016-04-26T01:32:38.423Z,0
2016-04-26T01:33:38.441Z,0
2016-04-26T01:34:38.460Z,0
2016-04-26T01:35:38.525Z,0
2016-04-26T01:36:38.559Z,0
2016-04-26T01:37:38.546Z,0
2016-04-26T01:38:38.565Z,0
2016-04-26T01:39:38.583Z,0
2016-04-26T01:40:38.616Z,0
2016-04-26T01:41:38.634Z,0
2016-04-26T01:42:38.654Z,0
2016-04-26T01:43:38.687Z,0
2016-04-26T01:44:38.721Z,0
2016-04-26T01:45:38.754Z,0
2016-04-26T01:46:38.758Z,0
2016-04-26T01:47:38.807Z,0
2016-04-26T01:48:38.825Z,0
2016-04-26T01:49:53.015Z,0
2016-04-26T01:50:38.878Z,0
2016-04-26T01:51:38.895Z,0
2016-04-26T01:52:38.915Z,0
2016-04-26T01:53:38.933Z,0
2016-04-26T01:54:38.966Z,0
2016-04-26T01:55:39.001Z,0
2016-04-26T01:56:39.003Z,0
2016-04-26T01:57:39.052Z,0
2016-04-26T01:58:39.087Z,0
2016-04-26T01:59:39.105Z,0
2016-04-26T02:00:39.124Z,0
2016-04-26T02:01:39.142Z,0
2016-04-26T02:02:39.082Z,0
2016-04-26T02:03:38.475Z,0
2016-04-26T02:04:39.260Z,0
2016-04-26T02:05:39.262Z,0
2016-04-26T02:06:39.312Z,0
2016-04-26T02:07:39.330Z,0
2016-04-26T02:08:39.348Z,0
2016-04-26T02:09:39.383Z,0
2016-04-26T02:10:39.401Z,0
2016-04-26T02:11:39.418Z,0
2016-04-26T02:12:39.421Z,0
2016-04-26T02:13:39.471Z,0
2016-04-26T02:14:39.489Z,0
2016-04-26T02:15:39.539Z,0
2016-04-26T02:16:39.651Z,0
2016-04-26T02:17:40.779Z,0
2016-04-26T02:18:39.607Z,0
2016-04-26T02:19:39.656Z,0
2016-04-26T02:20:39.628Z,0
2016-04-26T02:21:39.662Z,0
2016-04-26T02:22:39.560Z,0
2016-04-26T02:23:39.721Z,0
2016-04-26T02:24:39.755Z,0
2016-04-26T02:25:39.820Z,0
2016-04-26T02:26:39.838Z,0
2016-04-26T02:27:39.857Z,0
2016-04-26T02:28:39.969Z,0
2016-04-26T02:29:39.924Z,0
2016-04-26T02:30:39.958Z,0
2016-04-26T02:31:40.777Z,0
2016-04-26T02:32:40.888Z,0
2016-04-26T02:33:39.966Z,0
2016-04-26T02:34:40.015Z,0
2016-04-26T02:35:40.081Z,0
2016-04-26T02:36:40.053Z,0
2016-04-26T02:37:40.087Z,0
2016-04-26T02:38:40.120Z,0
2016-04-26T02:39:40.124Z,0
2016-04-26T02:40:40.173Z,0
2016-04-26T02:41:40.176Z,0
2016-04-26T02:42:40.225Z,0
2016-04-26T02:43:40.227Z,0
2016-04-26T02:44:40.262Z,0
2016-04-26T02:45:40.281Z,0
2016-04-26T02:46:40.361Z,0
2016-04-26T02:47:40.300Z,0
2016-04-26T02:48:40.398Z,0
2016-04-26T02:49:40.384Z,0
2016-04-26T02:50:40.418Z,0
2016-04-26T02:51:40.468Z,0
2016-04-26T02:52:40.472Z,0
2016-04-26T02:53:40.474Z,0
2016-04-26T02:54:40.522Z,0
2016-04-26T02:55:40.558Z,0
2016-04-26T02:56:40.637Z,0
2016-04-26T02:57:40.594Z,0
2016-04-26T02:58:40.612Z,0
2016-04-26T02:59:40.646Z,0
2016-04-26T03:00:40.664Z,0
2016-04-26T03:01:40.761Z,0
2016-04-26T03:02:42.437Z,0
2016-04-26T03:03:40.750Z,0
2016-04-26T03:04:40.613Z,0
2016-04-26T03:05:40.802Z,0
2016-04-26T03:06:40.821Z,0
2016-04-26T03:07:40.854Z,0
2016-04-26T03:08:40.857Z,0
2016-04-26T03:09:40.938Z,0
2016-04-26T03:10:40.956Z,0
2016-04-26T03:11:40.990Z,0
2016-04-26T03:12:40.806Z,0
2016-04-26T03:13:41.012Z,0
2016-04-26T03:14:41.030Z,0
2016-04-26T03:15:41.048Z,0
2016-04-26T03:16:41.081Z,0
2016-04-26T03:17:40.961Z,0
2016-04-26T03:18:41.120Z,0
2016-04-26T03:19:41.060Z,0
2016-04-26T03:20:41.187Z,0
2016-04-26T03:21:41.237Z,0
2016-04-26T03:22:41.256Z,0
2016-04-26T03:23:41.305Z,0
2016-04-26T03:24:41.261Z,0
2016-04-26T03:25:41.311Z,0
2016-04-26T03:26:41.392Z,0
2016-04-26T03:27:41.362Z,0
2016-04-26T03:28:41.397Z,0
2016-04-26T03:29:41.384Z,0
2016-04-26T03:30:41.433Z,0
2016-04-26T03:31:42.392Z,0
2016-04-26T03:32:41.361Z,0
2016-04-26T03:33:41.503Z,4
2016-04-26T03:34:41.538Z,4
2016-04-26T03:35:41.556Z,4
2016-04-26T03:36:41.605Z,0
2016-04-26T03:37:41.671Z,4
2016-04-26T03:38:41.627Z,4
2016-04-26T03:39:41.661Z,4
2016-04-26T03:40:41.726Z,4
2016-04-26T03:41:41.744Z,8
2016-04-26T03:42:41.763Z,4
2016-04-26T03:43:41.765Z,8
2016-04-26T03:44:41.815Z,8
2016-04-26T03:45:41.817Z,8
2016-04-26T03:46:42.463Z,12
2016-04-26T03:47:41.870Z,12
2016-04-26T03:48:41.903Z,16
2016-04-26T03:49:41.938Z,16
2016-04-26T03:50:41.924Z,16
2016-04-26T03:51:41.974Z,20
2016-04-26T03:52:41.993Z,24
2016-04-26T03:53:42.073Z,32
2016-04-26T03:54:42.107Z,32
2016-04-26T03:55:42.078Z,40
2016-04-26T03:56:42.144Z,44
2016-04-26T03:57:42.178Z,52
2016-04-26T03:58:42.195Z,56
2016-04-26T03:59:42.184Z,60
2016-04-26T04:00:42.186Z,64
2016-04-26T04:01:42.078Z,80
2016-04-26T04:02:42.913Z,88
2016-04-26T04:03:42.288Z,96
2016-04-26T04:04:42.305Z,108
2016-04-26T04:05:42.387Z,120
2016-04-26T04:06:42.358Z,132
2016-04-26T04:07:42.408Z,144
2016-04-26T04:08:42.411Z,160
2016-04-26T04:09:56.582Z,180
2016-04-26T04:10:42.535Z,192
2016-04-26T04:11:42.491Z,208
2016-04-26T04:12:42.493Z,224
2016-04-26T04:13:42.527Z,244
2016-04-26T04:14:42.546Z,264
2016-04-26T04:15:42.611Z,284
2016-04-26T04:16:42.739Z,304
2016-04-26T04:17:42.742Z,328
2016-04-26T04:18:42.650Z,352
2016-04-26T04:19:42.684Z,376
2016-04-26T04:20:42.703Z,400
2016-04-26T04:21:42.720Z,428
2016-04-26T04:22:42.770Z,456
2016-04-26T04:23:42.773Z,480
2016-04-26T04:24:42.807Z,512
2016-04-26T04:25:42.825Z,544
2016-04-26T04:26:42.844Z,576
2016-04-26T04:27:42.878Z,616
2016-04-26T04:28:42.911Z,656
2016-04-26T04:29:42.945Z,700
2016-04-26T04:30:42.963Z,744
2016-04-26T04:31:42.905Z,792
2016-04-26T04:32:43.033Z,840
2016-04-26T04:33:43.019Z,900
2016-04-26T04:34:43.084Z,948
2016-04-26T04:35:43.086Z,1000
2016-04-26T04:36:43.105Z,1056
2016-04-26T04:37:43.123Z,1092
2016-04-26T04:38:43.141Z,1204
2016-04-26T04:39:43.176Z,1344
2016-04-26T04:40:43.225Z,1440
2016-04-26T04:41:43.274Z,1456
2016-04-26T04:42:43.277Z,1424
2016-04-26T04:43:43.343Z,1420
2016-04-26T04:44:43.329Z,1416
2016-04-26T04:45:43.332Z,1440
2016-04-26T04:46:43.570Z,1456
2016-04-26T04:47:43.384Z,1468
2016-04-26T04:48:43.403Z,1512
2016-04-26T04:49:43.437Z,1576
2016-04-26T04:50:43.470Z,1628
2016-04-26T04:51:43.489Z,1660
2016-04-26T04:52:43.507Z,1756
2016-04-26T04:53:43.588Z,1704
2016-04-26T04:54:43.591Z,1720
2016-04-26T04:55:42.859Z,1784
2016-04-26T04:56:43.455Z,1876
2016-04-26T04:57:43.645Z,2012
2016-04-26T04:58:43.695Z,2200
2016-04-26T04:59:43.698Z,2444
2016-04-26T05:00:43.747Z,2740
2016-04-26T05:01:43.750Z,3064
2016-04-26T05:02:43.909Z,3368
2016-04-26T05:03:43.849Z,3564
2016-04-26T05:04:43.852Z,3560
2016-04-26T05:05:43.871Z,3396
2016-04-26T05:06:43.873Z,3216
2016-04-26T05:07:43.970Z,3112
2016-04-26T05:08:43.987Z,3092
2016-04-26T05:09:43.960Z,3120
2016-04-26T05:10:43.978Z,3240
2016-04-26T05:11:44.012Z,3404
2016-04-26T05:12:44.061Z,3652
2016-04-26T05:13:44.079Z,3816
2016-04-26T05:14:44.113Z,3788
2016-04-26T05:15:44.116Z,3532
2016-04-26T05:16:44.103Z,3268
2016-04-26T05:17:43.746Z,3024
2016-04-26T05:18:44.217Z,2724
2016-04-26T05:19:44.252Z,2436
2016-04-26T05:20:44.255Z,2296
2016-04-26T05:21:44.289Z,2268
2016-04-26T05:22:44.307Z,2196
2016-04-26T05:23:44.372Z,2164
2016-04-26T05:24:44.359Z,2160
2016-04-26T05:25:44.409Z,2172
2016-04-26T05:26:44.427Z,2208
2016-04-26T05:27:44.445Z,2288
2016-04-26T05:28:44.479Z,2456
2016-04-26T05:29:44.514Z,2684
2016-04-26T05:30:44.531Z,2908
2016-04-26T05:31:44.534Z,3168
2016-04-26T05:32:44.584Z,3384
2016-04-26T05:33:44.446Z,3616
2016-04-26T05:34:44.620Z,4000
2016-04-26T05:35:44.655Z,4416
2016-04-26T05:36:44.735Z,4748
2016-04-26T05:37:44.691Z,5048
2016-04-26T05:38:44.724Z,5272
2016-04-26T05:39:44.758Z,5388
2016-04-26T05:40:44.793Z,5296
2016-04-26T05:41:44.826Z,5112
2016-04-26T05:42:44.845Z,5208
2016-04-26T05:43:44.863Z,5476
2016-04-26T05:44:44.897Z,5296
2016-04-26T05:45:44.915Z,4476
2016-04-26T05:46:44.996Z,3680
2016-04-26T05:47:45.608Z,3664
2016-04-26T05:48:45.048Z,3944
2016-04-26T05:49:45.114Z,3908
2016-04-26T05:50:45.054Z,3936
2016-04-26T05:51:45.120Z,4116
2016-04-26T05:52:45.122Z,4028
2016-04-26T05:53:45.125Z,4024
2016-04-26T05:54:45.174Z,4320
2016-04-26T05:55:45.255Z,4712
2016-04-26T05:56:45.199Z,4988
2016-04-26T05:57:45.389Z,4768
2016-04-26T05:58:45.381Z,3732
2016-04-26T05:59:45.134Z,3208
2016-04-26T06:00:45.496Z,3000
2016-04-26T06:01:45.524Z,3124
2016-04-26T06:02:45.636Z,3552
2016-04-26T06:03:45.404Z,4384
2016-04-26T06:04:45.422Z,4560
2016-04-26T06:05:44.582Z,4788
2016-04-26T06:06:45.491Z,5632
2016-04-26T06:07:45.509Z,7252
2016-04-26T06:08:45.527Z,8772
2016-04-26T06:09:45.561Z,10248
2016-04-26T06:10:45.579Z,11152
2016-04-26T06:11:45.613Z,8980
2016-04-26T06:12:46.007Z,6592
2016-04-26T06:13:45.665Z,6440
2016-04-26T06:14:45.746Z,7240
2016-04-26T06:15:45.718Z,6416
2016-04-26T06:16:45.830Z,5912
2016-04-26T06:17:47.208Z,5580
2016-04-26T06:18:45.788Z,5656
2016-04-26T06:19:45.838Z,5744
2016-04-26T06:20:45.887Z,6152
2016-04-26T06:21:45.890Z,5036
2016-04-26T06:22:45.927Z,2852
2016-04-26T06:23:45.946Z,2064
2016-04-26T06:24:46.027Z,1748
2016-04-26T06:25:46.029Z,1712
2016-04-26T06:26:46.032Z,1640
2016-04-26T06:27:46.112Z,1360
2016-04-26T06:28:46.068Z,1324
2016-04-26T06:29:46.118Z,1760
2016-04-26T06:30:46.121Z,2132
2016-04-26T06:31:46.202Z,2504
2016-04-26T06:32:46.220Z,2736
2016-04-26T06:33:46.223Z,2496
2016-04-26T06:34:46.194Z,2796
2016-04-26T06:35:46.290Z,2828
2016-04-26T06:36:46.309Z,2588
2016-04-26T06:37:46.342Z,2912
2016-04-26T06:38:46.345Z,3012
2016-04-26T06:39:46.410Z,4120
2016-04-26T06:40:46.414Z,5488
2016-04-26T06:41:46.463Z,5696
2016-04-26T06:42:46.480Z,4444
2016-04-26T06:43:46.484Z,5560
2016-04-26T06:44:46.596Z,6092
2016-04-26T06:45:46.536Z,6688
2016-04-26T06:46:46.602Z,7256
2016-04-26T06:47:48.479Z,9628
2016-04-26T06:48:46.653Z,10792
2016-04-26T06:49:46.780Z,12612
2016-04-26T06:50:46.674Z,11208
2016-04-26T06:51:46.740Z,11772
2016-04-26T06:52:46.726Z,11260
2016-04-26T06:53:46.776Z,7952
2016-04-26T06:54:46.794Z,4588
2016-04-26T06:55:46.844Z,3628
2016-04-26T06:56:46.909Z,2796
2016-04-26T06:57:46.865Z,3084
2016-04-26T06:58:46.945Z,3716
2016-04-26T06:59:46.948Z,4104
2016-04-26T07:00:47.014Z,4328
2016-04-26T07:01:47.000Z,4044
2016-04-26T07:02:47.019Z,2132
2016-04-26T07:03:47.022Z,1468
2016-04-26T07:04:47.087Z,1564
2016-04-26T07:05:47.106Z,1684
2016-04-26T07:06:47.156Z,1296
2016-04-26T07:07:47.158Z,860
2016-04-26T07:08:47.192Z,744
2016-04-26T07:09:47.210Z,808
2016-04-26T07:10:47.244Z,932
2016-04-26T07:11:47.247Z,1140
2016-04-26T07:12:47.374Z,1436
2016-04-26T07:13:47.299Z,1624
2016-04-26T07:14:47.442Z,1428
2016-04-26T07:15:47.383Z,1532
2016-04-26T07:16:47.385Z,1792
2016-04-26T07:17:47.966Z,2444
2016-04-26T07:18:47.500Z,1764
2016-04-26T07:19:47.456Z,2020
2016-04-26T07:20:47.536Z,4316
2016-04-26T07:21:47.571Z,4952
2016-04-26T07:22:47.437Z,4128
2016-04-26T07:23:47.565Z,4420
2016-04-26T07:24:47.614Z,4332
2016-04-26T07:25:47.648Z,4676
2016-04-26T07:26:47.667Z,4336
2016-04-26T07:27:47.670Z,4216
2016-04-26T07:28:47.719Z,3968
2016-04-26T07:29:47.753Z,3952
2016-04-26T07:30:47.756Z,3016
2016-04-26T07:31:47.789Z,3756
2016-04-26T07:32:47.495Z,2988
2016-04-26T07:33:47.842Z,2488
2016-04-26T07:34:47.859Z,2200
2016-04-26T07:35:48.035Z,2276
2016-04-26T07:36:47.927Z,2456
2016-04-26T07:37:47.930Z,3396
2016-04-26T07:38:47.996Z,3116
2016-04-26T07:39:48.061Z,2944
2016-04-26T07:40:48.126Z,2736
2016-04-26T07:41:48.050Z,3360
2016-04-26T07:42:49.241Z,4236
2016-04-26T07:43:48.103Z,3592
2016-04-26T07:44:48.136Z,4308
2016-04-26T07:45:48.171Z,5080
2016-04-26T07:46:48.173Z,9032
2016-04-26T07:47:48.739Z,6344
2016-04-26T07:48:48.116Z,6676
2016-04-26T07:49:48.307Z,6836
2016-04-26T07:50:48.372Z,5752
2016-04-26T07:51:48.327Z,7460
2016-04-26T07:52:48.346Z,6384
2016-04-26T07:53:48.396Z,4920
2016-04-26T07:54:48.460Z,4984
2016-04-26T07:55:48.416Z,4740
2016-04-26T07:56:48.465Z,5260
2016-04-26T07:57:48.485Z,3928
2016-04-26T07:58:48.535Z,4736
2016-04-26T07:59:48.537Z,4680
2016-04-26T08:00:48.571Z,4684
2016-04-26T08:01:48.589Z,2884
2016-04-26T08:02:48.731Z,2400
2016-04-26T08:03:48.485Z,2648
2016-04-26T08:04:48.675Z,3380
2016-04-26T08:05:48.693Z,4916
2016-04-26T08:06:48.727Z,3888
2016-04-26T08:07:48.808Z,5968
2016-04-26T08:08:48.795Z,6144
2016-04-26T08:09:48.829Z,4616
2016-04-26T08:10:48.832Z,4804
2016-04-26T08:11:48.881Z,8476
2016-04-26T08:12:48.884Z,10024
2016-04-26T08:13:48.919Z,18720
2016-04-26T08:14:48.952Z,15476
2016-04-26T08:15:48.986Z,17056
2016-04-26T08:16:48.988Z,13144
2016-04-26T08:17:49.038Z,11392
2016-04-26T08:18:49.119Z,12640
2016-04-26T08:19:49.075Z,6528
2016-04-26T08:20:49.203Z,5760
2016-04-26T08:21:49.143Z,6172
2016-04-26T08:22:49.224Z,6976
2016-04-26T08:23:49.211Z,4216
2016-04-26T08:24:49.229Z,3048
2016-04-26T08:25:49.232Z,2968
2016-04-26T08:26:49.265Z,4200
2016-04-26T08:27:49.299Z,5480
2016-04-26T08:28:49.325Z,7248
2016-04-26T08:29:49.342Z,10516
2016-04-26T08:30:49.395Z,8100
2016-04-26T08:31:49.517Z,9404
2016-04-26T08:32:49.297Z,13776
2016-04-26T08:33:50.341Z,6212
2016-04-26T08:34:49.683Z,6596
2016-04-26T08:35:49.726Z,30080
2016-04-26T08:36:49.805Z,6352
2016-04-26T08:37:49.870Z,16928
2016-04-26T08:38:49.857Z,13372
2016-04-26T08:39:49.922Z,19968
2016-04-26T08:40:49.969Z,31584
2016-04-26T08:41:49.994Z,20320
2016-04-26T08:42:50.080Z,20320
2016-04-26T08:43:50.040Z,26464
2016-04-26T08:44:50.096Z,22976
2016-04-26T08:45:50.119Z,23328
2016-04-26T08:46:50.139Z,24928
2016-04-26T08:47:50.534Z,22688
2016-04-26T08:48:52.070Z,12364
2016-04-26T08:49:50.247Z,20320
2016-04-26T08:50:50.314Z,14996
2016-04-26T08:51:50.302Z,21312
2016-04-26T08:52:50.383Z,18240
2016-04-26T08:53:50.496Z,6792
2016-04-26T08:54:50.438Z,6848
2016-04-26T08:55:50.425Z,6092
2016-04-26T08:56:50.537Z,6124
2016-04-26T08:57:50.493Z,5940
2016-04-26T08:58:50.357Z,9856
2016-04-26T08:59:50.719Z,9064
2016-04-26T09:00:50.627Z,9028
2016-04-26T09:01:50.693Z,7956
2016-04-26T09:02:51.070Z,14036
2016-04-26T09:03:50.683Z,15324
2016-04-26T09:04:50.685Z,10384
2016-04-26T09:05:50.750Z,8452
2016-04-26T09:06:50.769Z,11140
2016-04-26T09:07:50.818Z,11004
2016-04-26T09:08:50.884Z,16352
2016-04-26T09:09:50.839Z,20064
2016-04-26T09:10:50.920Z,17440
2016-04-26T09:11:50.907Z,26976
2016-04-26T09:12:50.942Z,37568
2016-04-26T09:13:50.319Z,27520
2016-04-26T09:14:51.040Z,18048
2016-04-26T09:15:51.027Z,28064
2016-04-26T09:16:51.092Z,18016
2016-04-26T09:17:51.392Z,12908
2016-04-26T09:18:51.598Z,14364
2016-04-26T09:19:51.147Z,23296
2016-04-26T09:20:51.197Z,64416
2016-04-26T09:21:51.091Z,13816
2016-04-26T09:22:51.250Z,16308
2016-04-26T09:23:51.268Z,20960
2016-04-26T09:24:51.160Z,36384
2016-04-26T09:25:51.383Z,20416
2016-04-26T09:26:51.354Z,17984
2016-04-26T09:27:51.404Z,21760
2016-04-26T09:28:51.547Z,13852
2016-04-26T09:29:51.502Z,11116
2016-04-26T09:30:51.505Z,19264
2016-04-26T09:31:51.664Z,28832
2016-04-26T09:32:52.088Z,10748
2016-04-26T09:33:54.920Z,14232
2016-04-26T09:34:51.610Z,18624
2016-04-26T09:35:51.690Z,16992
2016-04-26T09:36:51.804Z,19968
2016-04-26T09:37:51.899Z,20768
2016-04-26T09:38:51.761Z,17952
2016-04-26T09:39:51.795Z,17536
2016-04-26T09:40:51.860Z,10180
2016-04-26T09:41:51.863Z,10264
2016-04-26T09:42:51.912Z,9628
2016-04-26T09:43:51.900Z,6752
2016-04-26T09:44:51.918Z,5984
2016-04-26T09:45:52.061Z,5904
2016-04-26T09:46:52.111Z,7528
2016-04-26T09:47:53.253Z,8796
2016-04-26T09:48:51.866Z,10324
2016-04-26T09:49:52.166Z,9740
2016-04-26T09:50:52.262Z,7484
2016-04-26T09:51:52.219Z,6364
2016-04-26T09:52:52.236Z,5848
2016-04-26T09:53:52.239Z,5060
2016-04-26T09:54:52.273Z,6272
2016-04-26T09:55:52.292Z,5920
2016-04-26T09:56:52.309Z,4944
2016-04-26T09:57:52.390Z,6740
2016-04-26T09:58:52.393Z,8168
2016-04-26T09:59:52.411Z,7444
2016-04-26T10:00:52.633Z,5820
2016-04-26T10:01:52.463Z,5364
2016-04-26T10:02:53.607Z,3844
2016-04-26T10:03:55.532Z,2712
2016-04-26T10:04:52.549Z,2092
2016-04-26T10:05:52.552Z,3088
2016-04-26T10:06:52.602Z,3800
2016-04-26T10:07:52.699Z,3292
2016-04-26T10:08:52.670Z,2520
2016-04-26T10:09:52.798Z,2680
2016-04-26T10:10:52.737Z,2744
2016-04-26T10:11:52.788Z,2384
2016-04-26T10:12:52.853Z,2936
2016-04-26T10:13:52.824Z,3400
2016-04-26T10:14:52.842Z,2972
2016-04-26T10:15:52.876Z,2724
2016-04-26T10:16:52.910Z,3096
2016-04-26T10:17:52.929Z,3384
2016-04-26T10:18:52.806Z,4044
2016-04-26T10:19:52.997Z,3852
2016-04-26T10:20:53.062Z,3716
2016-04-26T10:21:53.033Z,3936
2016-04-26T10:22:53.129Z,5048
2016-04-26T10:23:53.101Z,6268
2016-04-26T10:24:53.136Z,4896
2016-04-26T10:25:53.246Z,3992
2016-04-26T10:26:53.266Z,4072
2016-04-26T10:27:53.206Z,3660
2016-04-26T10:28:53.318Z,3768
2016-04-26T10:29:53.305Z,4140
2016-04-26T10:30:53.291Z,6972
2016-04-26T10:31:53.311Z,7004
2016-04-26T10:32:53.360Z,8088
2016-04-26T10:33:54.191Z,9408
2016-04-26T10:34:53.460Z,10396
2016-04-26T10:35:53.555Z,10728
2016-04-26T10:36:53.510Z,7508
2016-04-26T10:37:53.499Z,6552
2016-04-26T10:38:56.062Z,4920
2016-04-26T10:39:53.644Z,4532
2016-04-26T10:40:53.771Z,5468
2016-04-26T10:41:52.868Z,5328
2016-04-26T10:42:53.636Z,4236
2016-04-26T10:43:53.717Z,6296
2016-04-26T10:44:53.782Z,8504
2016-04-26T10:45:53.801Z,12032
2016-04-26T10:46:53.756Z,12644
2016-04-26T10:47:53.822Z,7836
2016-04-26T10:48:53.700Z,4932
2016-04-26T10:49:53.889Z,3536
2016-04-26T10:50:53.909Z,3920
2016-04-26T10:51:53.911Z,4020
2016-04-26T10:52:53.960Z,3716
2016-04-26T10:53:53.963Z,5212
2016-04-26T10:54:54.013Z,9368
2016-04-26T10:55:54.015Z,18368
2016-04-26T10:56:54.050Z,42464
2016-04-26T10:57:54.067Z,27296
2016-04-26T10:58:56.836Z,44448
2016-04-26T10:59:53.994Z,130400
2016-04-26T11:00:54.247Z,42944
2016-04-26T11:01:54.172Z,108384
2016-04-26T11:02:54.425Z,107584
2016-04-26T11:03:55.163Z,106240
2016-04-26T11:04:54.274Z,57664
2016-04-26T11:05:54.370Z,62688
2016-04-26T11:06:54.342Z,32320
2016-04-26T11:07:54.407Z,23168
2016-04-26T11:08:54.441Z,13260
2016-04-26T11:09:54.460Z,85984
2016-04-26T11:10:54.587Z,14940
2016-04-26T11:11:54.527Z,14860
2016-04-26T11:12:54.561Z,8936
2016-04-26T11:13:57.096Z,16104
2016-04-26T11:14:54.613Z,22464
2016-04-26T11:15:54.695Z,35616
2016-04-26T11:16:54.775Z,109024
2016-04-26T11:17:54.778Z,103616
2016-04-26T11:18:54.453Z,100288
2016-04-26T11:19:54.798Z,100384
2016-04-26T11:20:54.942Z,98144
2016-04-26T11:21:54.117Z,91104
2016-04-26T11:22:54.900Z,93824
2016-04-26T11:23:54.153Z,96128
2016-04-26T11:24:54.984Z,26336
2016-04-26T11:25:54.987Z,100992
2016-04-26T11:26:54.989Z,23296
2016-04-26T11:27:55.086Z,85152
2016-04-26T11:28:55.198Z,15888
2016-04-26T11:29:55.170Z,90784
2016-04-26T11:30:55.281Z,20608
2016-04-26T11:31:55.175Z,18368
2016-04-26T11:32:55.318Z,10244
2016-04-26T11:33:56.383Z,13188
2016-04-26T11:34:55.324Z,15792
2016-04-26T11:35:55.389Z,22688
2016-04-26T11:36:55.391Z,64224
2016-04-26T11:37:55.424Z,18144
2016-04-26T11:38:55.522Z,20384
2016-04-26T11:39:55.540Z,19936
2016-04-26T11:40:55.574Z,26336
2016-04-26T11:41:55.608Z,15800
2016-04-26T11:42:55.704Z,6508
2016-04-26T11:43:55.753Z,6940
2016-04-26T11:45:00.318Z,6948
2016-04-26T11:45:55.682Z,74976
2016-04-26T11:46:55.762Z,69024
2016-04-26T11:47:55.749Z,42272
2016-04-26T11:48:56.143Z,34944
2016-04-26T11:49:55.942Z,46560
2016-04-26T11:50:55.851Z,73376
2016-04-26T11:51:55.962Z,43904
2016-04-26T11:52:55.934Z,56992
2016-04-26T11:53:55.937Z,29888
2016-04-26T11:54:55.987Z,33856
2016-04-26T11:55:56.037Z,35232
2016-04-26T11:56:56.101Z,21728
2016-04-26T11:57:56.072Z,29184
2016-04-26T11:58:56.106Z,45984
2016-04-26T11:59:56.203Z,15692
2016-04-26T12:00:56.190Z,19584
2016-04-26T12:01:56.411Z,14600
2016-04-26T12:02:56.305Z,10548
2016-04-26T12:03:56.480Z,12164
2016-04-26T12:04:56.372Z,11248
2016-04-26T12:05:56.422Z,12456
2016-04-26T12:06:56.597Z,12324
2016-04-26T12:07:56.428Z,12296
2016-04-26T12:08:56.477Z,13200
2016-04-26T12:09:56.527Z,12692
2016-04-26T12:10:56.592Z,10408
2016-04-26T12:11:56.674Z,8800
2016-04-26T12:12:56.676Z,8232
2016-04-26T12:13:56.678Z,6904
2016-04-26T12:14:56.649Z,4852
2016-04-26T12:15:56.824Z,4896
2016-04-26T12:16:56.779Z,4680
2016-04-26T12:17:56.830Z,5480
2016-04-26T12:18:57.207Z,9512
2016-04-26T12:19:56.882Z,12508
2016-04-26T12:20:56.994Z,13188
2016-04-26T12:21:56.918Z,15520
2016-04-26T12:22:57.014Z,24480
2016-04-26T12:23:56.986Z,47232
2016-04-26T12:24:57.067Z,26048
2016-04-26T12:25:57.086Z,27008
2016-04-26T12:26:57.025Z,30080
2016-04-26T12:27:57.075Z,29536
2016-04-26T12:28:57.109Z,22208
2016-04-26T12:29:57.253Z,26496
2016-04-26T12:30:57.208Z,20288
2016-04-26T12:31:57.274Z,18048
2016-04-26T12:32:57.245Z,22240
2016-04-26T12:33:56.888Z,23520
2016-04-26T12:34:57.360Z,21664
2016-04-26T12:35:57.315Z,21920
2016-04-26T12:36:57.350Z,21600
2016-04-26T12:37:57.399Z,21280
2016-04-26T12:38:57.464Z,35232
2016-04-26T12:39:57.467Z,31040
2016-04-26T12:40:57.485Z,19520
2016-04-26T12:41:57.551Z,41312
2016-04-26T12:42:57.600Z,14440
2016-04-26T12:43:57.588Z,18944
2016-04-26T12:44:57.652Z,20704
2016-04-26T12:45:57.701Z,16768
2016-04-26T12:46:57.721Z,84000
2016-04-26T12:47:57.708Z,24416
2016-04-26T12:48:58.054Z,23232
2016-04-26T12:49:57.806Z,48288
2016-04-26T12:50:57.919Z,49920
2016-04-26T12:51:58.031Z,16672
2016-04-26T12:52:57.846Z,23232
2016-04-26T12:53:57.989Z,13504
2016-04-26T12:54:57.789Z,46144
2016-04-26T12:55:58.042Z,19584
2016-04-26T12:56:58.044Z,20256
2016-04-26T12:57:58.062Z,15340
2016-04-26T12:58:58.159Z,14824
2016-04-26T12:59:58.115Z,9632
2016-04-26T13:00:58.164Z,8176
2016-04-26T13:01:58.276Z,4072
2016-04-26T13:02:58.373Z,2972
2016-04-26T13:03:58.250Z,2564
2016-04-26T13:04:58.347Z,2524
2016-04-26T13:05:58.303Z,2716
2016-04-26T13:06:58.399Z,2804
2016-04-26T13:07:58.417Z,2036
2016-04-26T13:08:58.513Z,1896
2016-04-26T13:09:58.439Z,1960
2016-04-26T13:10:58.472Z,2340
2016-04-26T13:11:58.537Z,2208
2016-04-26T13:12:58.587Z,2124
2016-04-26T13:13:58.622Z,2248
2016-04-26T13:14:58.654Z,2684
2016-04-26T13:15:58.954Z,2540
2016-04-26T13:16:58.660Z,2684
2016-04-26T13:17:58.684Z,6304
2016-04-26T13:18:59.295Z,20000
2016-04-26T13:19:59.518Z,14696
2016-04-26T13:20:58.848Z,17632
2016-04-26T13:21:58.897Z,21536
2016-04-26T13:22:58.760Z,13212
2016-04-26T13:23:58.918Z,6772
2016-04-26T13:24:58.906Z,7548
2016-04-26T13:25:59.003Z,6288
2016-04-26T13:26:58.973Z,4852
2016-04-26T13:27:59.148Z,4248
2016-04-26T13:28:59.088Z,4192
2016-04-26T13:29:59.106Z,4252
2016-04-26T13:30:59.219Z,4496
2016-04-26T13:31:59.159Z,4380
2016-04-26T13:32:59.146Z,4988
2016-04-26T13:34:00.070Z,7304
2016-04-26T13:35:00.494Z,8064
2016-04-26T13:35:59.294Z,8668
2016-04-26T13:36:59.314Z,7444